createdAt,value
2023-04-15T00:00:32.319Z,11.50
2023-04-15T00:03:36.540Z,11.22
2023-04-15T00:06:43.132Z,10.95
2023-04-15T00:09:46.902Z,10.85
2023-04-15T00:12:50.326Z,11.43
2023-04-15T00:15:54.105Z,11.56
2023-04-15T00:18:57.718Z,11.70
2023-04-15T00:22:02.170Z,11.67
2023-04-15T00:25:05.837Z,11.99
2023-04-15T00:28:09.452Z,11.64
2023-04-15T00:31:12.941Z,11.19
2023-04-15T00:34:16.811Z,11.36
2023-04-15T00:37:20.181Z,11.50
2023-04-15T00:40:25.395Z,10.93
2023-04-15T00:43:28.708Z,11.69
2023-04-15T00:46:32.724Z,11.55
2023-04-15T00:49:36.096Z,11.78
2023-04-15T00:52:40.625Z,11.30
2023-04-15T00:55:44.319Z,11.23
2023-04-15T00:58:49.831Z,11.87
2023-04-15T01:01:54.025Z,11.87
2023-04-15T01:04:57.978Z,11.69
2023-04-15T01:08:01.675Z,11.08
2023-04-15T01:11:05.508Z,10.63
2023-04-15T01:14:11.126Z,9.91
2023-04-15T01:17:15.287Z,8.59
2023-04-15T01:20:18.934Z,7.43
2023-04-15T01:23:25.692Z,6.66
2023-04-15T01:26:29.692Z,6.07
2023-04-15T01:29:37.783Z,5.43
2023-04-15T01:32:42.507Z,5.12
2023-04-15T01:35:46.529Z,4.92
2023-04-15T01:38:50.093Z,4.95
2023-04-15T01:41:53.738Z,5.02
2023-04-15T01:45:17.481Z,5.18
2023-04-15T01:48:21.024Z,5.25
2023-04-15T01:51:36.008Z,5.31
2023-04-15T01:54:39.537Z,4.92
2023-04-15T01:57:47.503Z,4.62
2023-04-15T02:00:54.420Z,4.63
2023-04-15T02:03:57.828Z,4.84
2023-04-15T02:07:02.430Z,4.79
2023-04-15T02:10:08.260Z,4.69
2023-04-15T02:13:12.743Z,4.90
2023-04-15T02:16:20.361Z,5.12
2023-04-15T02:19:23.897Z,5.14
2023-04-15T02:22:27.302Z,4.97
2023-04-15T02:25:30.755Z,4.87
2023-04-15T02:28:34.310Z,4.53
2023-04-15T02:31:41.034Z,4.60
2023-04-15T02:34:44.589Z,4.48
2023-04-15T02:37:48.398Z,4.59
2023-04-15T02:40:52.604Z,4.52
2023-04-15T02:44:06.631Z,4.62
2023-04-15T02:47:16.823Z,4.77
2023-04-15T02:50:21.386Z,4.91
2023-04-15T02:53:34.155Z,4.90
2023-04-15T02:56:53.282Z,5.01
2023-04-15T03:03:24.486Z,5.31
2023-04-15T03:06:28.608Z,5.46
2023-04-15T03:12:53.094Z,5.86
2023-04-15T03:15:58.503Z,5.95
2023-04-15T03:19:04.275Z,6.19
2023-04-15T03:22:13.524Z,6.52
2023-04-15T03:25:45.040Z,6.69
2023-04-15T03:28:48.646Z,6.91
2023-04-15T03:35:18.224Z,7.39
2023-04-15T03:38:23.827Z,7.53
2023-04-15T03:41:27.742Z,7.57
2023-04-15T03:44:36.177Z,7.62
2023-04-15T03:47:51.010Z,7.64
2023-04-15T03:50:55.441Z,7.73
2023-04-15T03:54:01.375Z,7.90
2023-04-15T03:57:16.629Z,7.83
2023-04-15T04:00:21.785Z,7.90
2023-04-15T04:03:25.517Z,7.90
2023-04-15T04:06:29.088Z,7.90
2023-04-15T04:09:32.583Z,7.84
2023-04-15T04:12:36.100Z,8.02
2023-04-15T04:15:39.764Z,8.22
2023-04-15T04:18:43.341Z,8.33
2023-04-15T04:21:46.900Z,8.39
2023-04-15T04:25:20.052Z,8.50
2023-04-15T04:28:23.855Z,8.43
2023-04-15T04:31:28.615Z,8.63
2023-04-15T04:34:33.853Z,8.70
2023-04-15T04:37:37.729Z,8.68
2023-04-15T04:40:42.155Z,8.64
2023-04-15T04:43:48.628Z,8.50
2023-04-15T04:47:23.145Z,8.57
2023-04-15T04:50:28.085Z,8.66
2023-04-15T04:53:31.900Z,8.64
2023-04-15T04:56:35.761Z,8.81
2023-04-15T04:59:39.315Z,9.04
2023-04-15T05:02:44.917Z,9.18
2023-04-15T05:05:50.112Z,9.07
2023-04-15T05:08:53.820Z,9.01
2023-04-15T05:11:57.448Z,8.87
2023-04-15T05:15:01.031Z,8.95
2023-04-15T05:18:04.466Z,9.08
2023-04-15T05:21:08.608Z,9.05
2023-04-15T05:24:14.543Z,9.02
2023-04-15T05:27:18.119Z,8.94
2023-04-15T05:30:21.931Z,9.04
2023-04-15T05:33:27.130Z,9.22
2023-04-15T05:36:30.989Z,9.40
2023-04-15T05:39:35.768Z,9.32
2023-04-15T05:42:39.413Z,9.44
2023-04-15T05:45:43.130Z,9.58
2023-04-15T05:48:46.829Z,9.69
2023-04-15T05:51:50.441Z,9.64
2023-04-15T05:54:53.983Z,9.71
2023-04-15T05:57:58.033Z,9.80
2023-04-15T06:01:01.836Z,9.83
2023-04-15T06:07:22.703Z,9.88
2023-04-15T06:10:26.439Z,9.88
2023-04-15T06:13:33.247Z,10.02
2023-04-15T06:16:38.572Z,10.22
2023-04-15T06:19:42.019Z,10.21
2023-04-15T06:22:45.420Z,10.04
2023-04-15T06:25:48.982Z,9.99
2023-04-15T06:28:52.365Z,10.08
2023-04-15T06:31:57.123Z,10.21
2023-04-15T06:35:00.554Z,10.38
2023-04-15T06:38:06.275Z,10.55
2023-04-15T06:41:09.826Z,10.53
2023-04-15T06:44:13.532Z,10.61
2023-04-15T06:47:18.681Z,10.47
2023-04-15T06:50:23.989Z,10.38
2023-04-15T06:53:30.668Z,10.36
2023-04-15T06:56:34.824Z,10.23
2023-04-15T06:59:38.119Z,10.26
2023-04-15T07:02:41.828Z,10.28
2023-04-15T07:05:45.613Z,10.32
2023-04-15T07:08:49.529Z,10.25
2023-04-15T07:11:53.467Z,10.33
2023-04-15T07:15:01.555Z,10.30
2023-04-15T07:18:05.061Z,10.40
2023-04-15T07:21:09.986Z,10.56
2023-04-15T07:24:13.375Z,10.60
2023-04-15T07:27:17.177Z,10.55
2023-04-15T07:30:21.349Z,10.55
2023-04-15T07:33:24.935Z,10.63
2023-04-15T07:36:30.141Z,10.78
2023-04-15T07:39:33.543Z,10.73
2023-04-15T07:42:38.963Z,10.73
2023-04-15T07:45:43.526Z,10.73
2023-04-15T07:48:47.264Z,10.71
2023-04-15T07:51:51.236Z,10.73
2023-04-15T07:54:56.637Z,10.75
2023-04-15T07:58:00.010Z,10.67
2023-04-15T08:01:06.034Z,10.67
2023-04-15T08:04:09.984Z,10.74
2023-04-15T08:07:13.533Z,10.83
2023-04-15T08:10:16.986Z,10.84
2023-04-15T08:13:20.519Z,10.90
2023-04-15T08:16:26.072Z,11.00
2023-04-15T08:19:31.141Z,10.95
2023-04-15T08:22:35.177Z,11.04
2023-04-15T08:25:38.466Z,11.10
2023-04-15T08:28:45.700Z,11.00
2023-04-15T08:31:49.184Z,10.98
2023-04-15T08:34:52.997Z,11.02
2023-04-15T08:37:56.319Z,11.02
2023-04-15T08:41:03.793Z,10.95
2023-04-15T08:44:08.061Z,10.93
2023-04-15T08:47:17.378Z,10.87
2023-04-15T08:50:22.690Z,10.83
2023-04-15T08:53:27.411Z,10.90
2023-04-15T08:56:46.477Z,10.91
2023-04-15T08:59:53.732Z,10.93
2023-04-15T09:02:58.180Z,10.88
2023-04-15T09:06:02.396Z,10.83
2023-04-15T09:12:47.028Z,10.80
2023-04-15T09:15:51.404Z,10.81
2023-04-15T09:18:55.111Z,10.78
2023-04-15T09:22:00.692Z,10.77
2023-04-15T09:25:06.478Z,10.70
2023-04-15T09:28:10.212Z,10.68
2023-04-15T09:31:13.938Z,10.68
2023-04-15T09:34:17.450Z,10.63
2023-04-15T09:37:37.005Z,10.57
2023-04-15T09:40:45.648Z,10.43
2023-04-15T09:43:49.153Z,10.38
2023-04-15T09:46:53.116Z,10.40
2023-04-15T09:49:58.459Z,10.40
2023-04-15T09:53:05.159Z,10.47
2023-04-15T09:56:11.174Z,10.52
2023-04-15T09:59:14.656Z,10.59
2023-04-15T10:02:21.689Z,10.63
2023-04-15T10:05:26.493Z,10.61
2023-04-15T10:08:32.381Z,10.60
2023-04-15T10:11:36.691Z,10.55
2023-04-15T10:14:41.618Z,10.46
2023-04-15T10:17:46.265Z,10.35
2023-04-15T10:20:50.575Z,10.18
2023-04-15T10:23:54.597Z,10.04
2023-04-15T10:26:59.836Z,9.93
2023-04-15T10:30:06.545Z,9.84
2023-04-15T10:33:11.319Z,9.70
2023-04-15T10:36:16.195Z,9.56
2023-04-15T10:39:34.985Z,9.49
2023-04-15T10:42:38.568Z,9.26
2023-04-15T10:45:46.613Z,9.15
2023-04-15T10:48:54.751Z,9.01
2023-04-15T10:52:02.180Z,8.91
2023-04-15T10:55:18.614Z,8.78
2023-04-15T10:58:25.815Z,8.74
2023-04-15T11:01:49.061Z,8.73
2023-04-15T11:05:00.813Z,8.60
2023-04-15T11:08:05.363Z,8.52
2023-04-15T11:11:10.992Z,8.42
2023-04-15T11:14:17.798Z,8.30
2023-04-15T11:17:30.805Z,8.24
2023-04-15T11:24:03.829Z,8.11
2023-04-15T11:27:07.940Z,8.06
2023-04-15T11:30:24.771Z,8.11
2023-04-15T11:33:28.247Z,8.06
2023-04-15T11:36:33.352Z,7.99
2023-04-15T11:39:38.622Z,7.91
2023-04-15T11:42:49.683Z,7.83
2023-04-15T11:45:58.141Z,7.77
2023-04-15T11:49:04.566Z,7.69
2023-04-15T11:52:14.392Z,7.60
2023-04-15T11:58:40.682Z,7.40
2023-04-15T12:01:44.798Z,7.35
2023-04-15T12:04:48.390Z,7.28
2023-04-15T12:08:01.623Z,7.26
2023-04-15T12:11:05.134Z,7.22
2023-04-15T12:14:22.022Z,7.19
2023-04-15T12:17:25.969Z,7.15
2023-04-15T12:20:32.324Z,7.16
2023-04-15T12:23:38.874Z,7.18
2023-04-15T12:26:51.219Z,7.18
2023-04-15T12:30:08.756Z,7.14
2023-04-15T12:33:12.755Z,7.08
2023-04-15T12:36:16.443Z,7.09
2023-04-15T12:39:22.979Z,7.09
2023-04-15T12:42:26.243Z,7.08
2023-04-15T12:45:30.083Z,7.02
2023-04-15T12:48:34.154Z,6.97
2023-04-15T12:51:37.737Z,6.97
2023-04-15T12:54:41.234Z,6.95
2023-04-15T12:57:44.572Z,6.91
2023-04-15T13:00:48.098Z,6.85
2023-04-15T13:03:51.858Z,6.91
2023-04-15T13:06:55.141Z,6.91
2023-04-15T13:09:58.551Z,6.90
2023-04-15T13:13:02.616Z,6.91
2023-04-15T13:16:06.685Z,6.95
2023-04-15T13:19:34.355Z,7.01
2023-04-15T13:22:41.243Z,7.02
2023-04-15T13:25:54.987Z,7.07
2023-04-15T13:32:19.281Z,7.05
2023-04-15T13:35:24.663Z,7.02
2023-04-15T13:38:30.175Z,7.07
2023-04-15T13:41:33.735Z,7.01
2023-04-15T13:44:37.045Z,7.00
2023-04-15T13:47:40.573Z,7.00
2023-04-15T13:50:46.060Z,7.00
2023-04-15T13:53:49.417Z,6.98
2023-04-15T13:56:52.905Z,6.95
2023-04-15T13:59:56.415Z,7.00
2023-04-15T14:06:16.552Z,6.87
2023-04-15T14:09:43.406Z,6.92
2023-04-15T14:12:46.785Z,6.91
2023-04-15T14:15:50.135Z,6.88
2023-04-15T14:18:53.728Z,6.92
2023-04-15T14:21:57.082Z,6.92
2023-04-15T14:25:00.974Z,6.95
2023-04-15T14:28:04.899Z,6.90
2023-04-15T14:31:08.275Z,6.95
2023-04-15T14:34:12.635Z,6.95
2023-04-15T14:37:16.024Z,6.91
2023-04-15T14:40:19.768Z,6.92
2023-04-15T14:43:23.176Z,6.88
2023-04-15T14:46:27.205Z,6.87
2023-04-15T14:49:31.323Z,6.92
2023-04-15T14:52:39.374Z,6.90
2023-04-15T14:55:42.851Z,6.85
2023-04-15T14:58:46.458Z,6.83
2023-04-15T15:01:49.894Z,6.84
2023-04-15T15:04:53.447Z,6.85
2023-04-15T15:07:56.880Z,6.84
2023-04-15T15:11:00.288Z,6.85
2023-04-15T15:14:03.690Z,6.79
2023-04-15T15:17:07.332Z,6.81
2023-04-15T15:20:11.282Z,6.79
2023-04-15T15:23:16.929Z,6.74
2023-04-15T15:26:20.299Z,6.79
2023-04-15T15:29:24.233Z,6.74
2023-04-15T15:32:27.711Z,6.74
2023-04-15T15:35:31.243Z,6.70
2023-04-15T15:38:34.760Z,6.72
2023-04-15T15:41:38.374Z,6.70
2023-04-15T15:44:41.973Z,6.70
2023-04-15T15:47:45.398Z,6.63
2023-04-15T15:50:48.994Z,6.62
2023-04-15T15:53:52.459Z,6.62
2023-04-15T15:56:56.071Z,6.60
2023-04-15T16:00:10.262Z,6.52
2023-04-15T16:03:16.957Z,6.49
2023-04-15T16:06:20.510Z,6.43
2023-04-15T16:09:23.920Z,6.42
2023-04-15T16:12:27.748Z,6.38
2023-04-15T16:15:31.326Z,6.39
2023-04-15T16:18:35.375Z,6.33
2023-04-15T16:21:38.926Z,6.33
2023-04-15T16:24:42.471Z,6.30
2023-04-15T16:27:57.771Z,6.30
2023-04-15T16:31:06.818Z,6.30
2023-04-15T16:34:10.482Z,6.29
2023-04-15T16:37:14.056Z,6.25
2023-04-15T16:40:17.670Z,6.25
2023-04-15T16:43:21.351Z,6.22
2023-04-15T16:46:24.816Z,6.24
2023-04-15T16:49:28.406Z,6.22
2023-04-15T16:52:32.507Z,6.22
2023-04-15T16:55:36.045Z,6.22
2023-04-15T16:58:39.481Z,6.18
2023-04-15T17:01:43.242Z,6.15
2023-04-15T17:04:46.759Z,6.15
2023-04-15T17:07:50.192Z,6.15
2023-04-15T17:10:53.641Z,6.11
2023-04-15T17:13:57.195Z,6.12
2023-04-15T17:17:01.020Z,6.10
2023-04-15T17:20:05.003Z,6.10
2023-04-15T17:23:08.565Z,6.14
2023-04-15T17:26:12.017Z,6.07
2023-04-15T17:29:15.472Z,6.10
2023-04-15T17:32:18.987Z,6.05
2023-04-15T17:35:23.871Z,6.05
2023-04-15T17:38:27.531Z,6.01
2023-04-15T17:41:31.068Z,5.97
2023-04-15T17:44:34.471Z,5.97
2023-04-15T17:47:38.100Z,5.94
2023-04-15T17:50:41.781Z,5.95
2023-04-15T17:53:45.282Z,5.98
2023-04-15T17:56:49.871Z,5.98
2023-04-15T17:59:53.378Z,5.98
2023-04-15T18:02:56.993Z,5.94
2023-04-15T18:06:02.020Z,5.90
2023-04-15T18:09:05.824Z,5.86
2023-04-15T18:12:09.748Z,5.81
2023-04-15T18:15:15.329Z,5.77
2023-04-15T18:18:18.860Z,5.74
2023-04-15T18:21:22.732Z,5.73
2023-04-15T18:24:26.222Z,5.73
2023-04-15T18:27:29.685Z,5.77
2023-04-15T18:30:33.210Z,5.74
2023-04-15T18:33:36.825Z,5.77
2023-04-15T18:36:40.378Z,5.74
2023-04-15T18:39:44.857Z,5.74
2023-04-15T18:42:48.333Z,5.74
2023-04-15T18:45:53.760Z,5.70
2023-04-15T18:48:57.199Z,5.66
2023-04-15T18:52:00.910Z,5.66
2023-04-15T18:55:04.787Z,5.62
2023-04-15T18:58:09.359Z,5.60
2023-04-15T19:01:12.857Z,5.59
2023-04-15T19:04:16.361Z,5.57
2023-04-15T19:07:19.834Z,5.60
2023-04-15T19:10:23.973Z,5.59
2023-04-15T19:13:27.349Z,5.57
2023-04-15T19:16:30.859Z,5.63
2023-04-15T19:19:34.369Z,5.63
2023-04-15T19:22:38.152Z,5.60
2023-04-15T19:25:41.529Z,5.62
2023-04-15T19:28:45.052Z,5.62
2023-04-15T19:31:48.580Z,5.60
2023-04-15T19:34:52.100Z,5.57
2023-04-15T19:37:55.761Z,5.53
2023-04-15T19:40:59.978Z,5.53
2023-04-15T19:44:05.220Z,5.52
2023-04-15T19:47:08.650Z,5.52
2023-04-15T19:50:12.703Z,5.46
2023-04-15T19:53:16.348Z,5.45
2023-04-15T19:56:19.796Z,5.43
2023-04-15T19:59:23.275Z,5.40
2023-04-15T20:02:26.867Z,5.36
2023-04-15T20:05:30.462Z,5.31
2023-04-15T20:08:33.920Z,5.27
2023-04-15T20:12:09.530Z,5.29
2023-04-15T20:15:00.735Z,5.27
2023-04-15T20:18:04.219Z,5.25
2023-04-15T20:21:07.659Z,5.29
2023-04-15T20:24:11.672Z,5.31
2023-04-15T20:27:17.874Z,5.28
2023-04-15T20:30:21.506Z,5.34
2023-04-15T20:33:26.501Z,5.31
2023-04-15T20:36:29.887Z,5.32
2023-04-15T20:39:33.291Z,5.24
2023-04-15T20:42:36.895Z,5.19
2023-04-15T20:45:40.608Z,5.15
2023-04-15T20:48:43.989Z,5.11
2023-04-15T20:51:47.467Z,5.04
2023-04-15T20:54:51.643Z,5.01
2023-04-15T20:57:55.672Z,4.94
2023-04-15T21:00:59.531Z,4.92
2023-04-15T21:04:03.048Z,4.98
2023-04-15T21:07:06.580Z,5.00
2023-04-15T21:10:10.317Z,5.05
2023-04-15T21:13:16.097Z,5.08
2023-04-15T21:16:19.601Z,5.09
2023-04-15T21:19:22.987Z,5.14
2023-04-15T21:22:27.013Z,5.11
2023-04-15T21:25:30.429Z,5.09
2023-04-15T21:28:33.995Z,5.09
2023-04-15T21:31:37.509Z,5.04
2023-04-15T21:34:41.066Z,5.05
2023-04-15T21:37:44.444Z,5.01
2023-04-15T21:40:50.227Z,5.04
2023-04-15T21:43:54.721Z,5.01
2023-04-15T21:46:58.178Z,5.05
2023-04-15T21:50:01.725Z,5.09
2023-04-15T21:53:08.165Z,5.11
2023-04-15T21:56:11.956Z,5.18
2023-04-15T21:59:15.996Z,5.24
2023-04-15T22:02:19.537Z,5.27
2023-04-15T22:05:23.080Z,5.31
2023-04-15T22:08:26.667Z,5.31
2023-04-15T22:11:31.605Z,5.38
2023-04-15T22:14:35.008Z,5.39
2023-04-15T22:17:38.651Z,5.45
2023-04-15T22:20:42.232Z,5.47
2023-04-15T22:23:49.590Z,5.52
2023-04-15T22:26:52.638Z,5.55
2023-04-15T22:29:56.431Z,5.57
2023-04-15T22:32:59.814Z,5.63
2023-04-15T22:36:03.167Z,5.69
2023-04-15T22:39:06.838Z,5.75
2023-04-15T22:42:10.382Z,5.84
2023-04-15T22:45:14.762Z,5.91
2023-04-15T22:48:19.108Z,5.93
2023-04-15T22:51:23.676Z,5.94
2023-04-15T22:54:27.080Z,5.98
2023-04-15T22:57:30.588Z,6.04
2023-04-15T23:00:33.957Z,6.01
2023-04-15T23:03:38.988Z,6.01
2023-04-15T23:07:00.651Z,6.05
2023-04-15T23:10:04.080Z,6.11
2023-04-15T23:13:07.784Z,6.15
2023-04-15T23:16:11.320Z,6.22
2023-04-15T23:19:14.853Z,6.28
2023-04-15T23:22:19.307Z,6.32
2023-04-15T23:25:23.461Z,6.40
2023-04-15T23:28:26.899Z,6.53
2023-04-15T23:31:30.381Z,6.56
2023-04-15T23:34:33.740Z,6.57
2023-04-15T23:37:37.128Z,6.63
2023-04-15T23:40:40.631Z,6.70
2023-04-15T23:43:44.122Z,6.76
2023-04-15T23:46:47.616Z,6.76
2023-04-15T23:49:51.088Z,6.83
2023-04-15T23:52:54.651Z,6.88
2023-04-15T23:55:58.089Z,6.95
2023-04-15T23:59:01.600Z,7.05
